sensor_id;sensor_type;location;lat;lon;timestamp;P1;durP1;ratioP1;P2;durP2;ratioP2
42682;SDS011;28293;50.930;3.464;2022-07-29T00:00:41;9.05;;;3.85;;
42682;SDS011;28293;50.930;3.464;2022-07-29T00:03:09;7.35;;;3.97;;
42682;SDS011;28293;50.930;3.464;2022-07-29T00:05:36;7.43;;;4.10;;
42682;SDS011;28293;50.930;3.464;2022-07-29T00:08:04;6.75;;;3.40;;
42682;SDS011;28293;50.930;3.464;2022-07-29T00:10:29;8.38;;;3.72;;
42682;SDS011;28293;50.930;3.464;2022-07-29T00:12:55;5.82;;;3.38;;
42682;SDS011;28293;50.930;3.464;2022-07-29T00:15:21;9.77;;;3.65;;
42682;SDS011;28293;50.930;3.464;2022-07-29T00:17:46;6.63;;;3.15;;
42682;SDS011;28293;50.930;3.464;2022-07-29T00:20:12;12.23;;;3.80;;
42682;SDS011;28293;50.930;3.464;2022-07-29T00:22:38;7.20;;;3.10;;
42682;SDS011;28293;50.930;3.464;2022-07-29T00:25:04;10.02;;;3.85;;
42682;SDS011;28293;50.930;3.464;2022-07-29T00:27:31;6.82;;;3.50;;
42682;SDS011;28293;50.930;3.464;2022-07-29T00:29:57;8.57;;;3.90;;
42682;SDS011;28293;50.930;3.464;2022-07-29T00:32:22;7.15;;;3.50;;
42682;SDS011;28293;50.930;3.464;2022-07-29T00:34:48;7.30;;;3.45;;
42682;SDS011;28293;50.930;3.464;2022-07-29T00:37:43;6.25;;;3.42;;
42682;SDS011;28293;50.930;3.464;2022-07-29T00:40:09;6.63;;;3.25;;
42682;SDS011;28293;50.930;3.464;2022-07-29T00:42:41;7.40;;;3.42;;
42682;SDS011;28293;50.930;3.464;2022-07-29T00:45:08;8.20;;;3.47;;
42682;SDS011;28293;50.930;3.464;2022-07-29T00:47:34;8.45;;;3.33;;
42682;SDS011;28293;50.930;3.464;2022-07-29T00:49:59;10.45;;;3.65;;
42682;SDS011;28293;50.930;3.464;2022-07-29T00:52:25;6.65;;;3.22;;
42682;SDS011;28293;50.930;3.464;2022-07-29T00:54:51;7.72;;;3.60;;
42682;SDS011;28293;50.930;3.464;2022-07-29T00:57:17;9.55;;;4.18;;
42682;SDS011;28293;50.930;3.464;2022-07-29T00:59:43;7.72;;;3.55;;
42682;SDS011;28293;50.930;3.464;2022-07-29T01:02:09;12.50;;;4.38;;
42682;SDS011;28293;50.930;3.464;2022-07-29T01:04:34;8.75;;;4.30;;
42682;SDS011;28293;50.930;3.464;2022-07-29T01:07:00;8.45;;;4.15;;
42682;SDS011;28293;50.930;3.464;2022-07-29T01:09:27;8.02;;;4.00;;
42682;SDS011;28293;50.930;3.464;2022-07-29T01:11:53;8.60;;;4.50;;
42682;SDS011;28293;50.930;3.464;2022-07-29T01:14:19;10.10;;;4.30;;
42682;SDS011;28293;50.930;3.464;2022-07-29T01:22:27;10.30;;;4.45;;
42682;SDS011;28293;50.930;3.464;2022-07-29T01:25:02;8.80;;;4.32;;
42682;SDS011;28293;50.930;3.464;2022-07-29T01:28:13;6.45;;;4.10;;
42682;SDS011;28293;50.930;3.464;2022-07-29T01:30:56;8.32;;;4.15;;
42682;SDS011;28293;50.930;3.464;2022-07-29T01:33:23;8.95;;;4.35;;
42682;SDS011;28293;50.930;3.464;2022-07-29T01:36:14;9.13;;;4.88;;
42682;SDS011;28293;50.930;3.464;2022-07-29T01:38:48;8.43;;;4.78;;
42682;SDS011;28293;50.930;3.464;2022-07-29T01:41:23;10.82;;;5.22;;
42682;SDS011;28293;50.930;3.464;2022-07-29T01:43:53;8.07;;;4.75;;
42682;SDS011;28293;50.930;3.464;2022-07-29T01:46:32;8.30;;;4.30;;
42682;SDS011;28293;50.930;3.464;2022-07-29T01:49:02;8.52;;;4.20;;
42682;SDS011;28293;50.930;3.464;2022-07-29T01:51:41;8.40;;;4.60;;
42682;SDS011;28293;50.930;3.464;2022-07-29T01:54:14;8.32;;;4.38;;
42682;SDS011;28293;50.930;3.464;2022-07-29T01:57:00;9.82;;;4.70;;
42682;SDS011;28293;50.930;3.464;2022-07-29T01:59:28;11.00;;;5.20;;
42682;SDS011;28293;50.930;3.464;2022-07-29T02:01:57;10.27;;;5.38;;
42682;SDS011;28293;50.930;3.464;2022-07-29T02:04:24;9.45;;;4.80;;
42682;SDS011;28293;50.930;3.464;2022-07-29T02:06:52;10.85;;;5.18;;
42682;SDS011;28293;50.930;3.464;2022-07-29T02:09:21;12.85;;;5.10;;
42682;SDS011;28293;50.930;3.464;2022-07-29T02:11:51;8.32;;;4.60;;
42682;SDS011;28293;50.930;3.464;2022-07-29T02:14:19;10.00;;;4.72;;
42682;SDS011;28293;50.930;3.464;2022-07-29T02:16:47;9.90;;;5.40;;
42682;SDS011;28293;50.930;3.464;2022-07-29T02:19:16;8.68;;;4.90;;
42682;SDS011;28293;50.930;3.464;2022-07-29T02:21:44;10.15;;;4.97;;
42682;SDS011;28293;50.930;3.464;2022-07-29T02:24:11;10.00;;;5.45;;
42682;SDS011;28293;50.930;3.464;2022-07-29T02:26:39;11.38;;;5.50;;
42682;SDS011;28293;50.930;3.464;2022-07-29T02:29:08;10.35;;;5.40;;
42682;SDS011;28293;50.930;3.464;2022-07-29T02:31:35;10.23;;;5.10;;
42682;SDS011;28293;50.930;3.464;2022-07-29T02:34:02;8.68;;;5.35;;
42682;SDS011;28293;50.930;3.464;2022-07-29T02:36:30;10.93;;;5.80;;
42682;SDS011;28293;50.930;3.464;2022-07-29T02:38:57;10.05;;;5.88;;
42682;SDS011;28293;50.930;3.464;2022-07-29T02:41:42;9.70;;;5.55;;
42682;SDS011;28293;50.930;3.464;2022-07-29T02:44:14;10.82;;;5.90;;
42682;SDS011;28293;50.930;3.464;2022-07-29T02:46:43;10.20;;;5.80;;
42682;SDS011;28293;50.930;3.464;2022-07-29T02:49:23;10.10;;;5.80;;
42682;SDS011;28293;50.930;3.464;2022-07-29T02:51:57;9.07;;;5.28;;
42682;SDS011;28293;50.930;3.464;2022-07-29T02:57:24;9.10;;;5.55;;
42682;SDS011;28293;50.930;3.464;2022-07-29T02:59:58;9.00;;;5.55;;
42682;SDS011;28293;50.930;3.464;2022-07-29T03:02:30;8.98;;;5.72;;
42682;SDS011;28293;50.930;3.464;2022-07-29T03:05:15;10.95;;;5.43;;
42682;SDS011;28293;50.930;3.464;2022-07-29T03:07:45;10.43;;;5.57;;
42682;SDS011;28293;50.930;3.464;2022-07-29T03:10:13;11.60;;;5.63;;
42682;SDS011;28293;50.930;3.464;2022-07-29T03:12:39;8.75;;;5.38;;
42682;SDS011;28293;50.930;3.464;2022-07-29T03:15:05;7.50;;;5.13;;
42682;SDS011;28293;50.930;3.464;2022-07-29T03:17:33;10.05;;;5.60;;
42682;SDS011;28293;50.930;3.464;2022-07-29T03:19:59;10.73;;;5.38;;
42682;SDS011;28293;50.930;3.464;2022-07-29T03:22:26;9.00;;;5.40;;
42682;SDS011;28293;50.930;3.464;2022-07-29T03:24:52;11.48;;;5.78;;
42682;SDS011;28293;50.930;3.464;2022-07-29T03:27:18;10.07;;;5.53;;
42682;SDS011;28293;50.930;3.464;2022-07-29T03:29:44;10.60;;;5.53;;
42682;SDS011;28293;50.930;3.464;2022-07-29T03:32:09;10.45;;;5.72;;
42682;SDS011;28293;50.930;3.464;2022-07-29T03:34:36;10.68;;;5.00;;
42682;SDS011;28293;50.930;3.464;2022-07-29T03:37:03;8.02;;;5.30;;
42682;SDS011;28293;50.930;3.464;2022-07-29T03:39:29;8.85;;;5.05;;
42682;SDS011;28293;50.930;3.464;2022-07-29T03:41:59;8.80;;;5.32;;
42682;SDS011;28293;50.930;3.464;2022-07-29T03:44:26;9.60;;;4.75;;
42682;SDS011;28293;50.930;3.464;2022-07-29T03:46:53;7.72;;;4.72;;
42682;SDS011;28293;50.930;3.464;2022-07-29T03:49:22;10.45;;;5.35;;
42682;SDS011;28293;50.930;3.464;2022-07-29T03:51:49;9.32;;;5.82;;
42682;SDS011;28293;50.930;3.464;2022-07-29T03:54:15;10.30;;;5.30;;
42682;SDS011;28293;50.930;3.464;2022-07-29T03:56:42;8.38;;;5.30;;
42682;SDS011;28293;50.930;3.464;2022-07-29T03:59:12;9.90;;;5.72;;
42682;SDS011;28293;50.930;3.464;2022-07-29T04:01:40;11.13;;;5.45;;
42682;SDS011;28293;50.930;3.464;2022-07-29T04:04:06;9.38;;;5.75;;
42682;SDS011;28293;50.930;3.464;2022-07-29T04:06:39;10.82;;;5.70;;
42682;SDS011;28293;50.930;3.464;2022-07-29T04:09:05;10.30;;;5.80;;
42682;SDS011;28293;50.930;3.464;2022-07-29T04:11:31;10.73;;;6.28;;
42682;SDS011;28293;50.930;3.464;2022-07-29T04:13:57;9.68;;;5.82;;
42682;SDS011;28293;50.930;3.464;2022-07-29T04:16:22;12.30;;;5.88;;
42682;SDS011;28293;50.930;3.464;2022-07-29T04:18:48;9.70;;;5.70;;
42682;SDS011;28293;50.930;3.464;2022-07-29T04:21:14;11.55;;;5.90;;
42682;SDS011;28293;50.930;3.464;2022-07-29T04:23:39;10.32;;;5.93;;
42682;SDS011;28293;50.930;3.464;2022-07-29T04:26:06;9.63;;;5.70;;
42682;SDS011;28293;50.930;3.464;2022-07-29T04:28:34;9.73;;;6.00;;
42682;SDS011;28293;50.930;3.464;2022-07-29T04:31:00;10.23;;;6.57;;
42682;SDS011;28293;50.930;3.464;2022-07-29T04:33:26;8.80;;;6.30;;
42682;SDS011;28293;50.930;3.464;2022-07-29T04:35:52;8.95;;;5.85;;
42682;SDS011;28293;50.930;3.464;2022-07-29T04:38:18;10.80;;;6.40;;
42682;SDS011;28293;50.930;3.464;2022-07-29T04:40:43;10.25;;;6.13;;
42682;SDS011;28293;50.930;3.464;2022-07-29T04:43:09;9.15;;;5.70;;
42682;SDS011;28293;50.930;3.464;2022-07-29T04:45:34;9.40;;;6.32;;
42682;SDS011;28293;50.930;3.464;2022-07-29T04:48:00;9.55;;;6.75;;
42682;SDS011;28293;50.930;3.464;2022-07-29T04:50:26;9.30;;;6.50;;
42682;SDS011;28293;50.930;3.464;2022-07-29T04:52:51;9.20;;;6.20;;
42682;SDS011;28293;50.930;3.464;2022-07-29T04:55:17;8.70;;;6.57;;
42682;SDS011;28293;50.930;3.464;2022-07-29T04:57:43;8.50;;;5.68;;
42682;SDS011;28293;50.930;3.464;2022-07-29T05:00:09;10.77;;;6.57;;
42682;SDS011;28293;50.930;3.464;2022-07-29T05:02:35;10.23;;;6.43;;
42682;SDS011;28293;50.930;3.464;2022-07-29T05:05:00;13.00;;;6.18;;
42682;SDS011;28293;50.930;3.464;2022-07-29T05:07:26;9.10;;;6.13;;
42682;SDS011;28293;50.930;3.464;2022-07-29T05:09:52;12.82;;;6.68;;
42682;SDS011;28293;50.930;3.464;2022-07-29T05:12:18;9.98;;;6.93;;
42682;SDS011;28293;50.930;3.464;2022-07-29T05:14:43;12.13;;;6.93;;
42682;SDS011;28293;50.930;3.464;2022-07-29T05:17:09;10.02;;;7.53;;
42682;SDS011;28293;50.930;3.464;2022-07-29T05:19:35;15.00;;;7.95;;
42682;SDS011;28293;50.930;3.464;2022-07-29T05:22:00;10.18;;;6.85;;
42682;SDS011;28293;50.930;3.464;2022-07-29T05:24:26;10.70;;;6.70;;
42682;SDS011;28293;50.930;3.464;2022-07-29T05:26:52;8.90;;;5.78;;
42682;SDS011;28293;50.930;3.464;2022-07-29T05:29:18;10.02;;;5.65;;
42682;SDS011;28293;50.930;3.464;2022-07-29T05:31:43;10.45;;;5.00;;
42682;SDS011;28293;50.930;3.464;2022-07-29T05:34:09;9.32;;;5.28;;
42682;SDS011;28293;50.930;3.464;2022-07-29T05:36:34;8.65;;;5.13;;
42682;SDS011;28293;50.930;3.464;2022-07-29T05:39:00;9.25;;;4.68;;
42682;SDS011;28293;50.930;3.464;2022-07-29T05:41:26;9.32;;;4.57;;
42682;SDS011;28293;50.930;3.464;2022-07-29T05:43:51;7.93;;;4.35;;
42682;SDS011;28293;50.930;3.464;2022-07-29T05:46:17;7.13;;;4.03;;
42682;SDS011;28293;50.930;3.464;2022-07-29T05:48:43;8.40;;;4.18;;
42682;SDS011;28293;50.930;3.464;2022-07-29T05:51:08;6.53;;;4.20;;
42682;SDS011;28293;50.930;3.464;2022-07-29T05:53:35;8.95;;;4.68;;
42682;SDS011;28293;50.930;3.464;2022-07-29T05:56:02;10.07;;;5.10;;
42682;SDS011;28293;50.930;3.464;2022-07-29T05:58:29;7.40;;;4.38;;
42682;SDS011;28293;50.930;3.464;2022-07-29T06:00:55;8.63;;;4.95;;
42682;SDS011;28293;50.930;3.464;2022-07-29T06:03:24;8.98;;;5.07;;
42682;SDS011;28293;50.930;3.464;2022-07-29T06:05:50;9.30;;;4.93;;
42682;SDS011;28293;50.930;3.464;2022-07-29T06:08:16;10.05;;;5.25;;
42682;SDS011;28293;50.930;3.464;2022-07-29T06:10:42;12.90;;;5.20;;
42682;SDS011;28293;50.930;3.464;2022-07-29T06:13:08;11.90;;;5.72;;
42682;SDS011;28293;50.930;3.464;2022-07-29T06:15:34;8.82;;;5.13;;
42682;SDS011;28293;50.930;3.464;2022-07-29T06:17:59;17.00;;;6.22;;
42682;SDS011;28293;50.930;3.464;2022-07-29T06:20:25;10.55;;;6.00;;
42682;SDS011;28293;50.930;3.464;2022-07-29T06:22:54;9.60;;;5.65;;
42682;SDS011;28293;50.930;3.464;2022-07-29T06:25:20;11.57;;;6.05;;
42682;SDS011;28293;50.930;3.464;2022-07-29T06:27:45;14.80;;;6.57;;
42682;SDS011;28293;50.930;3.464;2022-07-29T06:30:11;13.57;;;6.32;;
42682;SDS011;28293;50.930;3.464;2022-07-29T06:32:37;13.40;;;6.55;;
42682;SDS011;28293;50.930;3.464;2022-07-29T06:35:03;13.40;;;7.35;;
42682;SDS011;28293;50.930;3.464;2022-07-29T06:37:28;18.02;;;7.88;;
42682;SDS011;28293;50.930;3.464;2022-07-29T06:39:54;17.65;;;7.70;;
42682;SDS011;28293;50.930;3.464;2022-07-29T06:42:42;19.42;;;8.38;;
42682;SDS011;28293;50.930;3.464;2022-07-29T06:45:09;15.95;;;7.82;;
42682;SDS011;28293;50.930;3.464;2022-07-29T06:47:35;23.15;;;9.73;;
42682;SDS011;28293;50.930;3.464;2022-07-29T06:50:01;15.48;;;7.65;;
42682;SDS011;28293;50.930;3.464;2022-07-29T06:52:27;15.38;;;7.47;;
42682;SDS011;28293;50.930;3.464;2022-07-29T06:54:52;20.80;;;9.45;;
42682;SDS011;28293;50.930;3.464;2022-07-29T06:57:19;17.95;;;8.80;;
42682;SDS011;28293;50.930;3.464;2022-07-29T06:59:46;17.70;;;9.07;;
42682;SDS011;28293;50.930;3.464;2022-07-29T07:02:12;22.08;;;9.98;;
42682;SDS011;28293;50.930;3.464;2022-07-29T07:04:37;19.83;;;10.48;;
42682;SDS011;28293;50.930;3.464;2022-07-29T07:07:03;20.35;;;10.20;;
42682;SDS011;28293;50.930;3.464;2022-07-29T07:09:29;20.17;;;10.77;;
42682;SDS011;28293;50.930;3.464;2022-07-29T07:11:54;23.90;;;11.10;;
42682;SDS011;28293;50.930;3.464;2022-07-29T07:14:20;22.13;;;10.93;;
42682;SDS011;28293;50.930;3.464;2022-07-29T07:16:46;20.80;;;10.85;;
42682;SDS011;28293;50.930;3.464;2022-07-29T07:19:11;22.95;;;11.25;;
42682;SDS011;28293;50.930;3.464;2022-07-29T07:21:37;21.02;;;10.43;;
42682;SDS011;28293;50.930;3.464;2022-07-29T07:24:02;23.75;;;10.07;;
42682;SDS011;28293;50.930;3.464;2022-07-29T07:26:28;15.73;;;9.55;;
42682;SDS011;28293;50.930;3.464;2022-07-29T07:28:54;14.57;;;8.60;;
42682;SDS011;28293;50.930;3.464;2022-07-29T07:31:20;17.30;;;9.43;;
42682;SDS011;28293;50.930;3.464;2022-07-29T07:33:45;12.68;;;8.60;;
42682;SDS011;28293;50.930;3.464;2022-07-29T07:36:11;15.60;;;9.05;;
42682;SDS011;28293;50.930;3.464;2022-07-29T07:38:37;16.75;;;8.05;;
42682;SDS011;28293;50.930;3.464;2022-07-29T07:41:02;14.77;;;8.55;;
42682;SDS011;28293;50.930;3.464;2022-07-29T07:43:28;16.05;;;9.98;;
42682;SDS011;28293;50.930;3.464;2022-07-29T07:45:54;14.70;;;9.25;;
42682;SDS011;28293;50.930;3.464;2022-07-29T07:48:19;11.85;;;8.38;;
42682;SDS011;28293;50.930;3.464;2022-07-29T07:50:45;15.18;;;9.18;;
42682;SDS011;28293;50.930;3.464;2022-07-29T07:53:11;11.43;;;8.57;;
42682;SDS011;28293;50.930;3.464;2022-07-29T07:55:43;16.10;;;9.30;;
42682;SDS011;28293;50.930;3.464;2022-07-29T07:58:09;13.43;;;8.75;;
42682;SDS011;28293;50.930;3.464;2022-07-29T08:00:35;18.02;;;8.60;;
42682;SDS011;28293;50.930;3.464;2022-07-29T08:03:00;15.25;;;8.77;;
42682;SDS011;28293;50.930;3.464;2022-07-29T08:05:26;14.77;;;8.23;;
42682;SDS011;28293;50.930;3.464;2022-07-29T08:07:52;12.85;;;8.55;;
42682;SDS011;28293;50.930;3.464;2022-07-29T08:10:18;13.43;;;8.00;;
42682;SDS011;28293;50.930;3.464;2022-07-29T08:13:06;14.90;;;8.13;;
42682;SDS011;28293;50.930;3.464;2022-07-29T08:15:32;14.82;;;8.70;;
42682;SDS011;28293;50.930;3.464;2022-07-29T08:17:58;14.68;;;7.90;;
42682;SDS011;28293;50.930;3.464;2022-07-29T08:20:25;16.13;;;8.10;;
42682;SDS011;28293;50.930;3.464;2022-07-29T08:22:51;12.05;;;6.93;;
42682;SDS011;28293;50.930;3.464;2022-07-29T08:25:17;13.13;;;6.65;;
42682;SDS011;28293;50.930;3.464;2022-07-29T08:27:45;14.57;;;6.65;;
42682;SDS011;28293;50.930;3.464;2022-07-29T08:30:12;12.75;;;6.80;;
42682;SDS011;28293;50.930;3.464;2022-07-29T08:32:37;11.63;;;7.07;;
42682;SDS011;28293;50.930;3.464;2022-07-29T08:35:03;18.17;;;7.68;;
42682;SDS011;28293;50.930;3.464;2022-07-29T08:37:30;9.80;;;6.10;;
42682;SDS011;28293;50.930;3.464;2022-07-29T08:39:55;11.85;;;6.88;;
42682;SDS011;28293;50.930;3.464;2022-07-29T08:42:21;11.50;;;6.93;;
42682;SDS011;28293;50.930;3.464;2022-07-29T08:44:47;12.27;;;7.07;;
42682;SDS011;28293;50.930;3.464;2022-07-29T08:47:14;13.63;;;6.53;;
42682;SDS011;28293;50.930;3.464;2022-07-29T08:49:40;12.60;;;6.88;;
42682;SDS011;28293;50.930;3.464;2022-07-29T08:52:06;10.82;;;6.80;;
42682;SDS011;28293;50.930;3.464;2022-07-29T08:54:35;11.40;;;6.45;;
42682;SDS011;28293;50.930;3.464;2022-07-29T08:57:01;12.90;;;5.90;;
42682;SDS011;28293;50.930;3.464;2022-07-29T08:59:27;9.10;;;5.38;;
42682;SDS011;28293;50.930;3.464;2022-07-29T09:01:56;11.25;;;5.55;;
42682;SDS011;28293;50.930;3.464;2022-07-29T09:04:25;9.88;;;5.00;;
42682;SDS011;28293;50.930;3.464;2022-07-29T09:06:54;10.38;;;5.05;;
42682;SDS011;28293;50.930;3.464;2022-07-29T09:09:23;8.43;;;4.28;;
42682;SDS011;28293;50.930;3.464;2022-07-29T09:11:49;8.75;;;4.07;;
42682;SDS011;28293;50.930;3.464;2022-07-29T09:14:15;10.57;;;4.53;;
42682;SDS011;28293;50.930;3.464;2022-07-29T09:16:49;8.48;;;3.92;;
42682;SDS011;28293;50.930;3.464;2022-07-29T09:19:40;9.20;;;3.85;;
42682;SDS011;28293;50.930;3.464;2022-07-29T09:22:06;8.82;;;4.82;;
42682;SDS011;28293;50.930;3.464;2022-07-29T09:24:42;10.00;;;4.78;;
42682;SDS011;28293;50.930;3.464;2022-07-29T09:27:22;10.05;;;4.28;;
42682;SDS011;28293;50.930;3.464;2022-07-29T09:29:57;7.63;;;3.67;;
42682;SDS011;28293;50.930;3.464;2022-07-29T09:32:24;7.93;;;3.83;;
42682;SDS011;28293;50.930;3.464;2022-07-29T09:34:51;7.57;;;3.67;;
42682;SDS011;28293;50.930;3.464;2022-07-29T09:37:41;9.70;;;3.42;;
42682;SDS011;28293;50.930;3.464;2022-07-29T09:40:17;7.85;;;3.60;;
42682;SDS011;28293;50.930;3.464;2022-07-29T09:42:45;6.55;;;3.08;;
42682;SDS011;28293;50.930;3.464;2022-07-29T09:45:11;6.88;;;3.42;;
42682;SDS011;28293;50.930;3.464;2022-07-29T09:47:50;8.88;;;3.40;;
42682;SDS011;28293;50.930;3.464;2022-07-29T09:50:16;6.68;;;3.55;;
42682;SDS011;28293;50.930;3.464;2022-07-29T09:52:49;7.93;;;3.22;;
42682;SDS011;28293;50.930;3.464;2022-07-29T09:55:17;8.45;;;3.80;;
42682;SDS011;28293;50.930;3.464;2022-07-29T09:57:43;7.20;;;3.67;;
42682;SDS011;28293;50.930;3.464;2022-07-29T10:00:11;7.50;;;3.65;;
42682;SDS011;28293;50.930;3.464;2022-07-29T10:02:39;7.57;;;3.13;;
42682;SDS011;28293;50.930;3.464;2022-07-29T10:05:09;6.28;;;3.25;;
42682;SDS011;28293;50.930;3.464;2022-07-29T10:07:47;7.80;;;3.33;;
42682;SDS011;28293;50.930;3.464;2022-07-29T10:10:23;6.57;;;2.95;;
42682;SDS011;28293;50.930;3.464;2022-07-29T10:13:01;5.93;;;2.88;;
42682;SDS011;28293;50.930;3.464;2022-07-29T10:15:29;8.90;;;3.40;;
42682;SDS011;28293;50.930;3.464;2022-07-29T10:17:57;9.38;;;3.42;;
42682;SDS011;28293;50.930;3.464;2022-07-29T10:20:24;7.32;;;3.20;;
42682;SDS011;28293;50.930;3.464;2022-07-29T10:22:51;6.70;;;2.30;;
42682;SDS011;28293;50.930;3.464;2022-07-29T10:25:17;6.68;;;2.92;;
42682;SDS011;28293;50.930;3.464;2022-07-29T10:27:44;10.45;;;3.65;;
42682;SDS011;28293;50.930;3.464;2022-07-29T10:30:12;6.72;;;2.67;;
42682;SDS011;28293;50.930;3.464;2022-07-29T10:40:57;6.10;;;2.40;;
42682;SDS011;28293;50.930;3.464;2022-07-29T10:46:26;7.23;;;2.67;;
42682;SDS011;28293;50.930;3.464;2022-07-29T10:49:11;6.28;;;2.20;;
42682;SDS011;28293;50.930;3.464;2022-07-29T10:57:23;8.00;;;2.72;;
42682;SDS011;28293;50.930;3.464;2022-07-29T11:07:23;9.68;;;3.33;;
42682;SDS011;28293;50.930;3.464;2022-07-29T11:12:50;11.43;;;3.80;;
42682;SDS011;28293;50.930;3.464;2022-07-29T11:15:17;7.95;;;2.80;;
42682;SDS011;28293;50.930;3.464;2022-07-29T11:22:57;8.38;;;2.85;;
42682;SDS011;28293;50.930;3.464;2022-07-29T11:25:23;7.07;;;3.08;;
42682;SDS011;28293;50.930;3.464;2022-07-29T11:27:49;9.15;;;3.03;;
42682;SDS011;28293;50.930;3.464;2022-07-29T11:30:16;9.20;;;2.90;;
42682;SDS011;28293;50.930;3.464;2022-07-29T11:32:43;6.25;;;2.70;;
42682;SDS011;28293;50.930;3.464;2022-07-29T11:37:39;9.18;;;2.88;;
42682;SDS011;28293;50.930;3.464;2022-07-29T11:47:59;7.47;;;3.10;;
42682;SDS011;28293;50.930;3.464;2022-07-29T11:50:28;7.47;;;2.50;;
42682;SDS011;28293;50.930;3.464;2022-07-29T11:52:57;7.45;;;2.60;;
42682;SDS011;28293;50.930;3.464;2022-07-29T11:55:24;8.07;;;2.80;;
42682;SDS011;28293;50.930;3.464;2022-07-29T11:57:51;6.15;;;2.58;;
42682;SDS011;28293;50.930;3.464;2022-07-29T12:03:03;6.95;;;3.13;;
42682;SDS011;28293;50.930;3.464;2022-07-29T12:05:40;6.80;;;2.70;;
42682;SDS011;28293;50.930;3.464;2022-07-29T12:08:08;7.88;;;2.50;;
42682;SDS011;28293;50.930;3.464;2022-07-29T12:10:37;7.75;;;2.50;;
42682;SDS011;28293;50.930;3.464;2022-07-29T12:13:04;6.80;;;2.35;;
42682;SDS011;28293;50.930;3.464;2022-07-29T12:15:30;5.13;;;2.63;;
42682;SDS011;28293;50.930;3.464;2022-07-29T12:17:56;9.38;;;2.33;;
42682;SDS011;28293;50.930;3.464;2022-07-29T12:20:27;5.57;;;2.38;;
42682;SDS011;28293;50.930;3.464;2022-07-29T12:22:54;6.47;;;2.47;;
42682;SDS011;28293;50.930;3.464;2022-07-29T12:25:21;6.75;;;2.40;;
42682;SDS011;28293;50.930;3.464;2022-07-29T12:27:57;4.47;;;2.50;;
42682;SDS011;28293;50.930;3.464;2022-07-29T12:30:35;5.55;;;2.30;;
42682;SDS011;28293;50.930;3.464;2022-07-29T12:33:12;6.68;;;2.88;;
42682;SDS011;28293;50.930;3.464;2022-07-29T12:35:38;6.72;;;2.78;;
42682;SDS011;28293;50.930;3.464;2022-07-29T12:38:04;8.00;;;2.60;;
42682;SDS011;28293;50.930;3.464;2022-07-29T12:40:30;7.05;;;2.70;;
42682;SDS011;28293;50.930;3.464;2022-07-29T12:43:10;7.57;;;2.78;;
42682;SDS011;28293;50.930;3.464;2022-07-29T12:45:38;5.07;;;2.40;;
42682;SDS011;28293;50.930;3.464;2022-07-29T12:48:06;7.25;;;2.75;;
42682;SDS011;28293;50.930;3.464;2022-07-29T12:50:34;6.40;;;2.63;;
42682;SDS011;28293;50.930;3.464;2022-07-29T12:53:10;7.22;;;2.15;;
42682;SDS011;28293;50.930;3.464;2022-07-29T12:55:38;6.82;;;2.97;;
42682;SDS011;28293;50.930;3.464;2022-07-29T12:58:05;8.63;;;2.97;;
42682;SDS011;28293;50.930;3.464;2022-07-29T13:00:31;6.68;;;3.00;;
42682;SDS011;28293;50.930;3.464;2022-07-29T13:02:58;4.63;;;2.70;;
42682;SDS011;28293;50.930;3.464;2022-07-29T13:05:46;4.43;;;2.38;;
42682;SDS011;28293;50.930;3.464;2022-07-29T13:08:15;5.32;;;2.60;;
42682;SDS011;28293;50.930;3.464;2022-07-29T13:10:43;7.75;;;2.60;;
42682;SDS011;28293;50.930;3.464;2022-07-29T13:13:11;7.32;;;2.90;;
42682;SDS011;28293;50.930;3.464;2022-07-29T13:15:39;5.32;;;2.35;;
42682;SDS011;28293;50.930;3.464;2022-07-29T13:18:25;6.97;;;3.03;;
42682;SDS011;28293;50.930;3.464;2022-07-29T13:20:54;7.03;;;3.08;;
42682;SDS011;28293;50.930;3.464;2022-07-29T13:23:21;7.13;;;2.63;;
42682;SDS011;28293;50.930;3.464;2022-07-29T13:25:47;7.25;;;2.97;;
42682;SDS011;28293;50.930;3.464;2022-07-29T13:28:13;10.18;;;2.88;;
42682;SDS011;28293;50.930;3.464;2022-07-29T13:30:39;7.78;;;3.03;;
42682;SDS011;28293;50.930;3.464;2022-07-29T13:33:06;11.32;;;2.95;;
42682;SDS011;28293;50.930;3.464;2022-07-29T13:35:32;6.90;;;3.05;;
42682;SDS011;28293;50.930;3.464;2022-07-29T13:37:58;6.28;;;2.47;;
42682;SDS011;28293;50.930;3.464;2022-07-29T13:40:24;7.72;;;2.53;;
42682;SDS011;28293;50.930;3.464;2022-07-29T13:42:49;6.22;;;2.50;;
42682;SDS011;28293;50.930;3.464;2022-07-29T13:45:15;6.80;;;2.70;;
42682;SDS011;28293;50.930;3.464;2022-07-29T13:47:41;8.68;;;3.33;;
42682;SDS011;28293;50.930;3.464;2022-07-29T13:50:07;8.23;;;2.50;;
42682;SDS011;28293;50.930;3.464;2022-07-29T13:52:35;7.95;;;2.80;;
42682;SDS011;28293;50.930;3.464;2022-07-29T13:55:03;5.97;;;2.80;;
42682;SDS011;28293;50.930;3.464;2022-07-29T13:57:29;7.85;;;2.95;;
42682;SDS011;28293;50.930;3.464;2022-07-29T13:59:56;7.28;;;2.72;;
42682;SDS011;28293;50.930;3.464;2022-07-29T14:02:22;7.60;;;2.65;;
42682;SDS011;28293;50.930;3.464;2022-07-29T14:04:48;5.63;;;2.72;;
42682;SDS011;28293;50.930;3.464;2022-07-29T14:07:14;6.50;;;2.95;;
42682;SDS011;28293;50.930;3.464;2022-07-29T14:09:40;8.70;;;3.47;;
42682;SDS011;28293;50.930;3.464;2022-07-29T14:12:06;7.97;;;3.20;;
42682;SDS011;28293;50.930;3.464;2022-07-29T14:14:32;8.60;;;3.28;;
42682;SDS011;28293;50.930;3.464;2022-07-29T14:16:58;8.85;;;3.08;;
42682;SDS011;28293;50.930;3.464;2022-07-29T14:19:24;5.95;;;2.95;;
42682;SDS011;28293;50.930;3.464;2022-07-29T14:21:50;6.78;;;3.10;;
42682;SDS011;28293;50.930;3.464;2022-07-29T14:24:16;6.78;;;2.58;;
42682;SDS011;28293;50.930;3.464;2022-07-29T14:26:42;7.63;;;2.85;;
42682;SDS011;28293;50.930;3.464;2022-07-29T14:29:07;11.82;;;3.42;;
42682;SDS011;28293;50.930;3.464;2022-07-29T14:31:33;8.82;;;3.60;;
42682;SDS011;28293;50.930;3.464;2022-07-29T14:33:59;7.43;;;3.70;;
42682;SDS011;28293;50.930;3.464;2022-07-29T14:36:25;7.68;;;2.85;;
42682;SDS011;28293;50.930;3.464;2022-07-29T14:38:52;6.95;;;3.25;;
42682;SDS011;28293;50.930;3.464;2022-07-29T14:41:18;8.13;;;3.53;;
42682;SDS011;28293;50.930;3.464;2022-07-29T14:43:44;6.60;;;3.00;;
42682;SDS011;28293;50.930;3.464;2022-07-29T14:46:09;8.63;;;3.30;;
42682;SDS011;28293;50.930;3.464;2022-07-29T14:48:35;8.70;;;3.40;;
42682;SDS011;28293;50.930;3.464;2022-07-29T14:51:01;10.30;;;3.17;;
42682;SDS011;28293;50.930;3.464;2022-07-29T14:53:26;7.07;;;3.15;;
42682;SDS011;28293;50.930;3.464;2022-07-29T14:55:52;8.10;;;3.13;;
42682;SDS011;28293;50.930;3.464;2022-07-29T14:58:18;6.63;;;3.15;;
42682;SDS011;28293;50.930;3.464;2022-07-29T15:00:44;7.82;;;2.60;;
42682;SDS011;28293;50.930;3.464;2022-07-29T15:03:10;6.93;;;2.83;;
42682;SDS011;28293;50.930;3.464;2022-07-29T15:05:36;10.60;;;2.85;;
42682;SDS011;28293;50.930;3.464;2022-07-29T15:08:01;8.55;;;2.90;;
42682;SDS011;28293;50.930;3.464;2022-07-29T15:10:28;7.65;;;3.53;;
42682;SDS011;28293;50.930;3.464;2022-07-29T15:12:54;6.95;;;2.60;;
42682;SDS011;28293;50.930;3.464;2022-07-29T15:15:20;7.20;;;2.75;;
42682;SDS011;28293;50.930;3.464;2022-07-29T15:17:46;6.65;;;2.50;;
42682;SDS011;28293;50.930;3.464;2022-07-29T15:20:12;7.85;;;2.55;;
42682;SDS011;28293;50.930;3.464;2022-07-29T15:22:38;8.00;;;2.70;;
42682;SDS011;28293;50.930;3.464;2022-07-29T15:25:06;8.85;;;2.78;;
42682;SDS011;28293;50.930;3.464;2022-07-29T15:27:32;8.68;;;2.70;;
42682;SDS011;28293;50.930;3.464;2022-07-29T15:29:57;13.43;;;4.13;;
42682;SDS011;28293;50.930;3.464;2022-07-29T15:32:23;6.63;;;2.90;;
42682;SDS011;28293;50.930;3.464;2022-07-29T15:34:49;11.35;;;4.38;;
42682;SDS011;28293;50.930;3.464;2022-07-29T15:37:14;8.40;;;3.53;;
42682;SDS011;28293;50.930;3.464;2022-07-29T15:39:40;11.23;;;4.40;;
42682;SDS011;28293;50.930;3.464;2022-07-29T15:42:06;13.23;;;4.65;;